Alaskan Explorer — WBD9918 — position and weather

sailwx.info

Track history (hours):
 
Tides and Currents Weather Stations Pressure Air Temp Water Temp Dewpoint Dewpoint Depression Visibility Wind Speed Wind Dir Waves Ship Positions

Alaskan Explorer

Last reported at 2014-Jul-04 09:30 UTC. Time now 2014-Jul-24 10:40 UTC.
Position N 48°30' W 126°41'.
Warning: this ship's position is 20 days out of date.

Length 288 m; draft 9.9 m.

Type: Ship. MMSI: 303294000.

Date/timePositionNaut miles runAvg speedWind from/ knotsBaromVisibWave heightAir tempDewpointWater temp
2014-Jul-04 09:30N 48°30' W 126°41'1414.5
2014-Jul-04 08:32N 48°30' W 126°20'1414.6
2014-Jul-04 07:34N 48°30' W 125°58'1514.9
2014-Jul-04 06:33N 48°30' W 125°36'1414.5
2014-Jul-04 05:33N 48°30' W 125°14'1515.5
2014-Jul-04 04:34N 48°30' W 124°51'1414.3
2014-Jul-04 03:33N 48°27' W 124°30'1413.8
2014-Jul-04 02:33N 48°21' W 124°11'1313.3
2014-Jul-04 01:33N 48°17' W 123°52'1313.2
2014-Jul-04 00:33N 48°15' W 123°32'8 8.1
2014-Jul-03 23:33N 48°08' W 123°25'1 0.5
2014-Jul-03 22:33N 48°08' W 123°26'0 0.0
2014-Jul-03 21:33N 48°08' W 123°26'0 0.0
2014-Jul-03 20:33N 48°08' W 123°26'0 0.0
2014-Jul-03 19:33N 48°08' W 123°26'0 0.1
2014-Jul-03 18:33N 48°08' W 123°26'0 0.1
2014-Jul-03 17:33N 48°08' W 123°26'0 0.0
2014-Jul-03 16:33N 48°08' W 123°26'0 0.1
2014-Jul-03 15:33N 48°08' W 123°26'0 0.0
2014-Jul-03 14:33N 48°08' W 123°26'0 0.1
2014-Jul-03 13:30N 48°08' W 123°26'0 0.0
2014-Jul-03 12:30N 48°08' W 123°26'0 0.1
2014-Jul-03 11:33N 48°08' W 123°26'0 0.0
2014-Jul-03 10:27N 48°08' W 123°26'0 0.0
2014-Jul-03 09:33N 48°08' W 123°26'0 0.0
2014-Jul-03 08:33N 48°08' W 123°26'0 0.0
2014-Jul-03 07:30N 48°08' W 123°26'0 0.0
2014-Jul-03 06:33N 48°08' W 123°26'0 0.0
2014-Jul-03 05:33N 48°08' W 123°26'0 0.0
2014-Jul-03 04:18N 48°08' W 123°26'0 0.0
2014-Jul-03 03:30N 48°08' W 123°26'0 0.0
2014-Jul-03 02:33N 48°08' W 123°26'0 0.0
2014-Jul-03 01:33N 48°08' W 123°26'0 0.0
2014-Jul-03 00:33N 48°08' W 123°26'0 0.0
2014-Jul-02 23:24N 48°08' W 123°26'0 0.1
2014-Jul-02 22:33N 48°08' W 123°26'0 0.0
2014-Jul-02 21:33N 48°08' W 123°26'0 0.0
2014-Jul-02 20:21N 48°08' W 123°26'0 0.0
2014-Jul-02 19:30N 48°08' W 123°26'0 0.0
2014-Jul-02 18:24N 48°08' W 123°26'0 0.0
2014-Jul-02 17:33N 48°08' W 123°26'0 0.0
2014-Jul-02 16:33N 48°08' W 123°26'0 0.0
2014-Jul-02 15:33N 48°08' W 123°26'0 0.0
2014-Jul-02 14:33N 48°08' W 123°26'0 0.0
2014-Jul-02 13:30N 48°08' W 123°26'0 0.0
2014-Jul-02 12:33N 48°08' W 123°26'0 0.0
2014-Jul-02 11:33N 48°08' W 123°26'0 0.0
2014-Jul-02 10:33N 48°08' W 123°26'0 0.0
2014-Jul-02 09:33N 48°08' W 123°26'0 0.0
2014-Jul-02 08:33N 48°08' W 123°26'0 0.0
2014-Jul-02 07:33N 48°08' W 123°26'0 0.0
2014-Jul-02 06:33N 48°08' W 123°26'0 0.0
2014-Jul-02 05:33N 48°08' W 123°26'0 0.3
2014-Jul-02 04:33N 48°08' W 123°26'0 0.0
2014-Jul-02 03:27N 48°08' W 123°26'0 0.0
2014-Jul-02 02:33N 48°08' W 123°26'0 0.0
2014-Jul-02 01:33N 48°08' W 123°26'0 0.1
2014-Jul-02 00:33N 48°08' W 123°26'0 0.1
2014-Jul-01 23:30N 48°08' W 123°26'0 0.2
2014-Jul-01 22:33N 48°08' W 123°26'0 0.1
2014-Jul-01 21:33N 48°08' W 123°26'6 6.0
2014-Jul-01 20:33N 48°10' W 123°17'1615.7
2014-Jul-01 19:34N 48°20' W 122°59'1515.2
2014-Jul-01 18:34N 48°32' W 122°45'1615.6
2014-Jul-01 17:34N 48°47' W 122°47'4 1.9
2014-Jul-01 15:15N 48°52' W 122°46'0 0.0
2014-Jul-01 11:03N 48°52' W 122°46'0 0.0
2014-Jul-01 04:33N 48°52' W 122°46'0 0.0
2014-Jul-01 03:27N 48°52' W 122°46'0 0.0
2014-Jun-30 20:21N 48°52' W 122°46'0 0.0
2014-Jun-30 19:27N 48°52' W 122°46'0 0.0
2014-Jun-30 17:15N 48°52' W 122°46'0 0.0
2014-Jun-30 16:27N 48°52' W 122°46'0 0.0
2014-Jun-30 15:27N 48°52' W 122°46'0 0.0
2014-Jun-30 14:27N 48°52' W 122°46'0 0.0
2014-Jun-30 13:21N 48°52' W 122°46'0 0.0
2014-Jun-30 12:27N 48°52' W 122°46'0 0.0
2014-Jun-30 10:27N 48°52' W 122°46'0 0.0
2014-Jun-30 09:33N 48°52' W 122°46'0 0.0
2014-Jun-30 08:33N 48°52' W 122°46'0 0.0
2014-Jun-30 07:15N 48°52' W 122°46'0 0.0
2014-Jun-30 06:33N 48°52' W 122°46'0 0.0
2014-Jun-30 05:27N 48°52' W 122°46'0 0.0
2014-Jun-30 01:27N 48°52' W 122°46'1 1.7
2014-Jun-30 00:33N 48°50' W 122°46'8 8.4
2014-Jun-29 23:33N 48°42' W 122°44'1110.9
2014-Jun-29 22:33N 48°31' W 122°44'1010.0
2014-Jun-29 21:33N 48°22' W 122°52'1313.0
2014-Jun-29 20:33N 48°15' W 123°08'1212.2
2014-Jun-29 19:33N 48°08' W 123°23'1 0.8
2014-Jun-29 18:28N 48°08' W 123°24'0 0.1
2014-Jun-29 17:22N 48°08' W 123°24'0 0.1
2014-Jun-29 16:31N 48°08' W 123°24'0 0.0
2014-Jun-29 15:31N 48°08' W 123°24'0 0.0
2014-Jun-29 14:31N 48°08' W 123°24'0 0.0
2014-Jun-29 13:31N 48°08' W 123°24'0 0.1
2014-Jun-29 12:31N 48°08' W 123°24'0 0.0
2014-Jun-29 11:31N 48°08' W 123°24'0 0.1
2014-Jun-29 10:31N 48°08' W 123°24'0 0.1
2014-Jun-29 09:28N 48°08' W 123°24'0 0.1
2014-Jun-29 08:31N 48°08' W 123°24'0 0.1
2014-Jun-29 07:31N 48°08' W 123°24'0 0.0
2014-Jun-29 06:28N 48°08' W 123°24'0 0.0
2014-Jun-29 05:31N 48°08' W 123°24'0 0.1
2014-Jun-29 04:31N 48°08' W 123°24'0 0.0
2014-Jun-29 03:31N 48°08' W 123°24'0 0.0
2014-Jun-29 02:28N 48°08' W 123°24'0 0.0
2014-Jun-29 01:22N 48°08' W 123°24'0 0.1
2014-Jun-29 00:31N 48°08' W 123°24'0 0.0
2014-Jun-28 23:31N 48°08' W 123°24'0 0.0
2014-Jun-28 22:31N 48°08' W 123°24'0 0.2
2014-Jun-28 21:25N 48°08' W 123°24'0 0.1
2014-Jun-28 20:31N 48°08' W 123°24'0 0.0
2014-Jun-28 19:31N 48°08' W 123°24'0 0.0
2014-Jun-28 18:28N 48°08' W 123°24'0 0.1
2014-Jun-28 17:31N 48°08' W 123°24'0 0.1
2014-Jun-28 16:31N 48°08' W 123°24'0 0.0
2014-Jun-28 15:31N 48°08' W 123°24'0 0.0
2014-Jun-28 14:31N 48°08' W 123°24'0 0.0
2014-Jun-28 13:28N 48°08' W 123°24'0 0.0
2014-Jun-28 12:25N 48°08' W 123°24'0 0.0
2014-Jun-28 11:31N 48°08' W 123°24'0 0.1
2014-Jun-28 10:31N 48°08' W 123°24'0 0.1
2014-Jun-28 09:31N 48°08' W 123°24'0 0.1
2014-Jun-28 08:31N 48°08' W 123°24'0 0.2
2014-Jun-28 07:31N 48°08' W 123°24'0 0.2
2014-Jun-28 06:31N 48°08' W 123°24'0 0.1
2014-Jun-28 05:28N 48°08' W 123°24'0 0.0
2014-Jun-28 04:31N 48°08' W 123°24'0 0.0
2014-Jun-28 03:31N 48°08' W 123°24'0 0.1
2014-Jun-28 02:31N 48°08' W 123°24'0 0.1
2014-Jun-28 01:31N 48°08' W 123°24'0 0.0
2014-Jun-28 00:10N 48°08' W 123°24'0 0.0
2014-Jun-27 23:31N 48°08' W 123°24'0 0.1
2014-Jun-27 22:25N 48°08' W 123°24'0 0.0
2014-Jun-27 21:31N 48°08' W 123°24'0 0.0
2014-Jun-27 20:31N 48°08' W 123°24'0 0.2
2014-Jun-27 19:31N 48°08' W 123°24'0 0.1
2014-Jun-27 18:31N 48°08' W 123°24'0 0.0
2014-Jun-27 17:31N 48°08' W 123°24'0 0.2
2014-Jun-27 16:25N 48°08' W 123°24'0 0.1
2014-Jun-27 15:31N 48°08' W 123°24'0 0.1
2014-Jun-27 14:19N 48°08' W 123°24'0 0.0
2014-Jun-27 13:28N 48°08' W 123°24'0 0.1
2014-Jun-27 12:31N 48°08' W 123°24'0 0.0
2014-Jun-27 11:28N 48°08' W 123°24'0 0.0
2014-Jun-27 10:31N 48°08' W 123°24'0 0.0
2014-Jun-27 09:31N 48°08' W 123°24'0 0.0
2014-Jun-27 08:28N 48°08' W 123°24'0 0.1
2014-Jun-27 07:25N 48°08' W 123°24'0 0.2
2014-Jun-27 06:31N 48°08' W 123°24'0 0.1
2014-Jun-27 05:31N 48°08' W 123°24'0 0.0
2014-Jun-27 04:28N 48°08' W 123°24'0 0.0
2014-Jun-27 03:31N 48°08' W 123°24'0 0.0
2014-Jun-27 02:25N 48°08' W 123°24'0 0.1
2014-Jun-27 01:31N 48°08' W 123°24'0 0.1
2014-Jun-27 00:28N 48°08' W 123°24'0 0.0
2014-Jun-26 23:28N 48°08' W 123°24'0 0.0
2014-Jun-26 22:28N 48°08' W 123°24'0 0.0
2014-Jun-26 21:31N 48°08' W 123°24'0 0.0
2014-Jun-26 20:25N 48°08' W 123°24'0 0.1
2014-Jun-26 19:28N 48°08' W 123°24'0 0.1
2014-Jun-26 18:28N 48°08' W 123°24'0 0.0
2014-Jun-26 17:31N 48°08' W 123°24'0 0.0
2014-Jun-26 16:31N 48°08' W 123°24'0 0.0
2014-Jun-26 15:31N 48°08' W 123°24'0 0.1
2014-Jun-26 14:31N 48°08' W 123°24'0 0.0
2014-Jun-26 13:28N 48°08' W 123°24'0 0.0
2014-Jun-26 12:28N 48°08' W 123°24'0 0.0
2014-Jun-26 11:28N 48°08' W 123°24'0 0.0
2014-Jun-26 10:31N 48°08' W 123°24'0 0.0
2014-Jun-26 09:25N 48°08' W 123°24'0 0.1
2014-Jun-26 08:28N 48°08' W 123°24'0 0.1
2014-Jun-26 07:31N 48°08' W 123°24'0 0.0
2014-Jun-26 06:25N 48°08' W 123°24'0 0.1
2014-Jun-26 05:28N 48°08' W 123°24'0 0.0
2014-Jun-26 04:31N 48°08' W 123°24'0 0.0
2014-Jun-26 03:31N 48°08' W 123°24'0 0.1
2014-Jun-26 02:31N 48°08' W 123°24'0 0.1
2014-Jun-26 01:25N 48°08' W 123°24'0 0.1
2014-Jun-26 00:31N 48°08' W 123°24'0 0.1
2014-Jun-25 23:31N 48°08' W 123°24'0 0.1
2014-Jun-25 19:31N 48°08' W 123°24'0 0.1
2014-Jun-25 18:31N 48°08' W 123°24'0 0.1
2014-Jun-25 17:28N 48°08' W 123°24'0 0.0
2014-Jun-25 16:31N 48°08' W 123°24'0 0.1
2014-Jun-25 15:25N 48°08' W 123°24'0 0.2
2014-Jun-25 14:10N 48°08' W 123°24'0 0.1
2014-Jun-25 13:31N 48°08' W 123°24'0 0.0
2014-Jun-25 12:31N 48°08' W 123°24'0 0.1
2014-Jun-25 11:28N 48°08' W 123°24'0 0.1
2014-Jun-25 10:28N 48°08' W 123°24'0 0.1
2014-Jun-25 09:28N 48°08' W 123°24'0 0.1
2014-Jun-25 08:13N 48°08' W 123°24'0 0.0
2014-Jun-25 07:22N 48°08' W 123°24'0 0.1
2014-Jun-25 06:25N 48°08' W 123°24'0 0.0
2014-Jun-25 05:31N 48°08' W 123°24'0 0.1
2014-Jun-25 04:31N 48°08' W 123°24'0 0.0
2014-Jun-25 03:31N 48°08' W 123°24'0 0.1
2014-Jun-25 02:25N 48°08' W 123°24'0 0.0
2014-Jun-25 01:31N 48°08' W 123°24'0 0.0
2014-Jun-25 00:28N 48°08' W 123°24'0 0.0
2014-Jun-24 23:31N 48°08' W 123°24'0 0.0
2014-Jun-24 22:31N 48°08' W 123°24'0 0.1
2014-Jun-24 21:28N 48°08' W 123°24'0 0.1
2014-Jun-24 20:31N 48°08' W 123°24'0 0.1
2014-Jun-24 19:31N 48°08' W 123°24'0 0.1
2014-Jun-24 18:28N 48°08' W 123°24'0 0.1
2014-Jun-24 17:25N 48°08' W 123°24'0 0.0
2014-Jun-24 16:31N 48°08' W 123°24'0 0.0
2014-Jun-24 15:28N 48°08' W 123°24'0 0.1
2014-Jun-24 14:31N 48°08' W 123°24'0 0.1
2014-Jun-24 13:25N 48°08' W 123°24'0 0.1
2014-Jun-24 12:31N 48°08' W 123°24'0 0.1
2014-Jun-24 11:31N 48°08' W 123°24'0 0.0
2014-Jun-24 10:28N 48°08' W 123°24'  
Track history (hours):
 
Tides and Currents Weather Stations Pressure Air Temp Water Temp Dewpoint Dewpoint Depression Visibility Wind Speed Wind Dir Waves Ship Positions

Alaskan Explorer

Last reported at 2014-Jul-04 09:30 UTC. Time now 2014-Jul-24 10:40 UTC.
Position N 48°30' W 126°41'.
Warning: this ship's position is 20 days out of date.

Length 288 m; draft 9.9 m.

Type: Ship. MMSI: 303294000.

Date/timePositionNaut miles runAvg speedWind from/ knotsBaromVisibWave heightAir tempDewpointWater temp
2014-Jul-04 09:30N 48°30' W 126°41'1414.5
2014-Jul-04 08:32N 48°30' W 126°20'1414.6
2014-Jul-04 07:34N 48°30' W 125°58'1514.9
2014-Jul-04 06:33N 48°30' W 125°36'1414.5
2014-Jul-04 05:33N 48°30' W 125°14'1515.5
2014-Jul-04 04:34N 48°30' W 124°51'1414.3
2014-Jul-04 03:33N 48°27' W 124°30'1413.8
2014-Jul-04 02:33N 48°21' W 124°11'1313.3
2014-Jul-04 01:33N 48°17' W 123°52'1313.2
2014-Jul-04 00:33N 48°15' W 123°32'8 8.1
2014-Jul-03 23:33N 48°08' W 123°25'1 0.5
2014-Jul-03 22:33N 48°08' W 123°26'0 0.0
2014-Jul-03 21:33N 48°08' W 123°26'0 0.0
2014-Jul-03 20:33N 48°08' W 123°26'0 0.0
2014-Jul-03 19:33N 48°08' W 123°26'0 0.1
2014-Jul-03 18:33N 48°08' W 123°26'0 0.1
2014-Jul-03 17:33N 48°08' W 123°26'0 0.0
2014-Jul-03 16:33N 48°08' W 123°26'0 0.1
2014-Jul-03 15:33N 48°08' W 123°26'0 0.0
2014-Jul-03 14:33N 48°08' W 123°26'0 0.1
2014-Jul-03 13:30N 48°08' W 123°26'0 0.0
2014-Jul-03 12:30N 48°08' W 123°26'0 0.1
2014-Jul-03 11:33N 48°08' W 123°26'0 0.0
2014-Jul-03 10:27N 48°08' W 123°26'0 0.0
2014-Jul-03 09:33N 48°08' W 123°26'0 0.0
2014-Jul-03 08:33N 48°08' W 123°26'0 0.0
2014-Jul-03 07:30N 48°08' W 123°26'0 0.0
2014-Jul-03 06:33N 48°08' W 123°26'0 0.0
2014-Jul-03 05:33N 48°08' W 123°26'0 0.0
2014-Jul-03 04:18N 48°08' W 123°26'0 0.0
2014-Jul-03 03:30N 48°08' W 123°26'0 0.0
2014-Jul-03 02:33N 48°08' W 123°26'0 0.0
2014-Jul-03 01:33N 48°08' W 123°26'0 0.0
2014-Jul-03 00:33N 48°08' W 123°26'0 0.0
2014-Jul-02 23:24N 48°08' W 123°26'0 0.1
2014-Jul-02 22:33N 48°08' W 123°26'0 0.0
2014-Jul-02 21:33N 48°08' W 123°26'0 0.0
2014-Jul-02 20:21N 48°08' W 123°26'0 0.0
2014-Jul-02 19:30N 48°08' W 123°26'0 0.0
2014-Jul-02 18:24N 48°08' W 123°26'0 0.0
2014-Jul-02 17:33N 48°08' W 123°26'0 0.0
2014-Jul-02 16:33N 48°08' W 123°26'0 0.0
2014-Jul-02 15:33N 48°08' W 123°26'0 0.0
2014-Jul-02 14:33N 48°08' W 123°26'0 0.0
2014-Jul-02 13:30N 48°08' W 123°26'0 0.0
2014-Jul-02 12:33N 48°08' W 123°26'0 0.0
2014-Jul-02 11:33N 48°08' W 123°26'0 0.0
2014-Jul-02 10:33N 48°08' W 123°26'0 0.0
2014-Jul-02 09:33N 48°08' W 123°26'0 0.0
2014-Jul-02 08:33N 48°08' W 123°26'0 0.0
2014-Jul-02 07:33N 48°08' W 123°26'0 0.0
2014-Jul-02 06:33N 48°08' W 123°26'0 0.0
2014-Jul-02 05:33N 48°08' W 123°26'0 0.3
2014-Jul-02 04:33N 48°08' W 123°26'0 0.0
2014-Jul-02 03:27N 48°08' W 123°26'0 0.0
2014-Jul-02 02:33N 48°08' W 123°26'0 0.0
2014-Jul-02 01:33N 48°08' W 123°26'0 0.1
2014-Jul-02 00:33N 48°08' W 123°26'0 0.1
2014-Jul-01 23:30N 48°08' W 123°26'0 0.2
2014-Jul-01 22:33N 48°08' W 123°26'0 0.1
2014-Jul-01 21:33N 48°08' W 123°26'6 6.0
2014-Jul-01 20:33N 48°10' W 123°17'1615.7
2014-Jul-01 19:34N 48°20' W 122°59'1515.2
2014-Jul-01 18:34N 48°32' W 122°45'1615.6
2014-Jul-01 17:34N 48°47' W 122°47'4 1.9
2014-Jul-01 15:15N 48°52' W 122°46'0 0.0
2014-Jul-01 11:03N 48°52' W 122°46'0 0.0
2014-Jul-01 04:33N 48°52' W 122°46'0 0.0
2014-Jul-01 03:27N 48°52' W 122°46'0 0.0
2014-Jun-30 20:21N 48°52' W 122°46'0 0.0
2014-Jun-30 19:27N 48°52' W 122°46'0 0.0
2014-Jun-30 17:15N 48°52' W 122°46'0 0.0
2014-Jun-30 16:27N 48°52' W 122°46'0 0.0
2014-Jun-30 15:27N 48°52' W 122°46'0 0.0
2014-Jun-30 14:27N 48°52' W 122°46'0 0.0
2014-Jun-30 13:21N 48°52' W 122°46'0 0.0
2014-Jun-30 12:27N 48°52' W 122°46'0 0.0
2014-Jun-30 10:27N 48°52' W 122°46'0 0.0
2014-Jun-30 09:33N 48°52' W 122°46'0 0.0
2014-Jun-30 08:33N 48°52' W 122°46'0 0.0
2014-Jun-30 07:15N 48°52' W 122°46'0 0.0
2014-Jun-30 06:33N 48°52' W 122°46'0 0.0
2014-Jun-30 05:27N 48°52' W 122°46'0 0.0
2014-Jun-30 01:27N 48°52' W 122°46'1 1.7
2014-Jun-30 00:33N 48°50' W 122°46'8 8.4
2014-Jun-29 23:33N 48°42' W 122°44'1110.9
2014-Jun-29 22:33N 48°31' W 122°44'1010.0
2014-Jun-29 21:33N 48°22' W 122°52'1313.0
2014-Jun-29 20:33N 48°15' W 123°08'1212.2
2014-Jun-29 19:33N 48°08' W 123°23'1 0.8
2014-Jun-29 18:28N 48°08' W 123°24'0 0.1
2014-Jun-29 17:22N 48°08' W 123°24'0 0.1
2014-Jun-29 16:31N 48°08' W 123°24'0 0.0
2014-Jun-29 15:31N 48°08' W 123°24'0 0.0
2014-Jun-29 14:31N 48°08' W 123°24'0 0.0
2014-Jun-29 13:31N 48°08' W 123°24'0 0.1
2014-Jun-29 12:31N 48°08' W 123°24'0 0.0
2014-Jun-29 11:31N 48°08' W 123°24'0 0.1
2014-Jun-29 10:31N 48°08' W 123°24'0 0.1
2014-Jun-29 09:28N 48°08' W 123°24'0 0.1
2014-Jun-29 08:31N 48°08' W 123°24'0 0.1
2014-Jun-29 07:31N 48°08' W 123°24'0 0.0
2014-Jun-29 06:28N 48°08' W 123°24'0 0.0
2014-Jun-29 05:31N 48°08' W 123°24'0 0.1
2014-Jun-29 04:31N 48°08' W 123°24'0 0.0
2014-Jun-29 03:31N 48°08' W 123°24'0 0.0
2014-Jun-29 02:28N 48°08' W 123°24'0 0.0
2014-Jun-29 01:22N 48°08' W 123°24'0 0.1
2014-Jun-29 00:31N 48°08' W 123°24'0 0.0
2014-Jun-28 23:31N 48°08' W 123°24'0 0.0
2014-Jun-28 22:31N 48°08' W 123°24'0 0.2
2014-Jun-28 21:25N 48°08' W 123°24'0 0.1
2014-Jun-28 20:31N 48°08' W 123°24'0 0.0
2014-Jun-28 19:31N 48°08' W 123°24'0 0.0
2014-Jun-28 18:28N 48°08' W 123°24'0 0.1
2014-Jun-28 17:31N 48°08' W 123°24'0 0.1
2014-Jun-28 16:31N 48°08' W 123°24'0 0.0
2014-Jun-28 15:31N 48°08' W 123°24'0 0.0
2014-Jun-28 14:31N 48°08' W 123°24'0 0.0
2014-Jun-28 13:28N 48°08' W 123°24'0 0.0
2014-Jun-28 12:25N 48°08' W 123°24'0 0.0
2014-Jun-28 11:31N 48°08' W 123°24'0 0.1
2014-Jun-28 10:31N 48°08' W 123°24'0 0.1
2014-Jun-28 09:31N 48°08' W 123°24'0 0.1
2014-Jun-28 08:31N 48°08' W 123°24'0 0.2
2014-Jun-28 07:31N 48°08' W 123°24'0 0.2
2014-Jun-28 06:31N 48°08' W 123°24'0 0.1
2014-Jun-28 05:28N 48°08' W 123°24'0 0.0
2014-Jun-28 04:31N 48°08' W 123°24'0 0.0
2014-Jun-28 03:31N 48°08' W 123°24'0 0.1
2014-Jun-28 02:31N 48°08' W 123°24'0 0.1
2014-Jun-28 01:31N 48°08' W 123°24'0 0.0
2014-Jun-28 00:10N 48°08' W 123°24'0 0.0
2014-Jun-27 23:31N 48°08' W 123°24'0 0.1
2014-Jun-27 22:25N 48°08' W 123°24'0 0.0
2014-Jun-27 21:31N 48°08' W 123°24'0 0.0
2014-Jun-27 20:31N 48°08' W 123°24'0 0.2
2014-Jun-27 19:31N 48°08' W 123°24'0 0.1
2014-Jun-27 18:31N 48°08' W 123°24'0 0.0
2014-Jun-27 17:31N 48°08' W 123°24'0 0.2
2014-Jun-27 16:25N 48°08' W 123°24'0 0.1
2014-Jun-27 15:31N 48°08' W 123°24'0 0.1
2014-Jun-27 14:19N 48°08' W 123°24'0 0.0
2014-Jun-27 13:28N 48°08' W 123°24'0 0.1
2014-Jun-27 12:31N 48°08' W 123°24'0 0.0
2014-Jun-27 11:28N 48°08' W 123°24'0 0.0
2014-Jun-27 10:31N 48°08' W 123°24'0 0.0
2014-Jun-27 09:31N 48°08' W 123°24'0 0.0
2014-Jun-27 08:28N 48°08' W 123°24'0 0.1
2014-Jun-27 07:25N 48°08' W 123°24'0 0.2
2014-Jun-27 06:31N 48°08' W 123°24'0 0.1
2014-Jun-27 05:31N 48°08' W 123°24'0 0.0
2014-Jun-27 04:28N 48°08' W 123°24'0 0.0
2014-Jun-27 03:31N 48°08' W 123°24'0 0.0
2014-Jun-27 02:25N 48°08' W 123°24'0 0.1
2014-Jun-27 01:31N 48°08' W 123°24'0 0.1
2014-Jun-27 00:28N 48°08' W 123°24'0 0.0
2014-Jun-26 23:28N 48°08' W 123°24'0 0.0
2014-Jun-26 22:28N 48°08' W 123°24'0 0.0
2014-Jun-26 21:31N 48°08' W 123°24'0 0.0
2014-Jun-26 20:25N 48°08' W 123°24'0 0.1
2014-Jun-26 19:28N 48°08' W 123°24'0 0.1
2014-Jun-26 18:28N 48°08' W 123°24'0 0.0
2014-Jun-26 17:31N 48°08' W 123°24'0 0.0
2014-Jun-26 16:31N 48°08' W 123°24'0 0.0
2014-Jun-26 15:31N 48°08' W 123°24'0 0.1
2014-Jun-26 14:31N 48°08' W 123°24'0 0.0
2014-Jun-26 13:28N 48°08' W 123°24'0 0.0
2014-Jun-26 12:28N 48°08' W 123°24'0 0.0
2014-Jun-26 11:28N 48°08' W 123°24'0 0.0
2014-Jun-26 10:31N 48°08' W 123°24'0 0.0
2014-Jun-26 09:25N 48°08' W 123°24'0 0.1
2014-Jun-26 08:28N 48°08' W 123°24'0 0.1
2014-Jun-26 07:31N 48°08' W 123°24'0 0.0
2014-Jun-26 06:25N 48°08' W 123°24'0 0.1
2014-Jun-26 05:28N 48°08' W 123°24'0 0.0
2014-Jun-26 04:31N 48°08' W 123°24'0 0.0
2014-Jun-26 03:31N 48°08' W 123°24'0 0.1
2014-Jun-26 02:31N 48°08' W 123°24'0 0.1
2014-Jun-26 01:25N 48°08' W 123°24'0 0.1
2014-Jun-26 00:31N 48°08' W 123°24'0 0.1
2014-Jun-25 23:31N 48°08' W 123°24'0 0.1
2014-Jun-25 19:31N 48°08' W 123°24'0 0.1
2014-Jun-25 18:31N 48°08' W 123°24'0 0.1
2014-Jun-25 17:28N 48°08' W 123°24'0 0.0
2014-Jun-25 16:31N 48°08' W 123°24'0 0.1
2014-Jun-25 15:25N 48°08' W 123°24'0 0.2
2014-Jun-25 14:10N 48°08' W 123°24'0 0.1
2014-Jun-25 13:31N 48°08' W 123°24'0 0.0
2014-Jun-25 12:31N 48°08' W 123°24'0 0.1
2014-Jun-25 11:28N 48°08' W 123°24'0 0.1
2014-Jun-25 10:28N 48°08' W 123°24'0 0.1
2014-Jun-25 09:28N 48°08' W 123°24'0 0.1
2014-Jun-25 08:13N 48°08' W 123°24'0 0.0
2014-Jun-25 07:22N 48°08' W 123°24'0 0.1
2014-Jun-25 06:25N 48°08' W 123°24'0 0.0
2014-Jun-25 05:31N 48°08' W 123°24'0 0.1
2014-Jun-25 04:31N 48°08' W 123°24'0 0.0
2014-Jun-25 03:31N 48°08' W 123°24'0 0.1
2014-Jun-25 02:25N 48°08' W 123°24'0 0.0
2014-Jun-25 01:31N 48°08' W 123°24'0 0.0
2014-Jun-25 00:28N 48°08' W 123°24'0 0.0
2014-Jun-24 23:31N 48°08' W 123°24'0 0.0
2014-Jun-24 22:31N 48°08' W 123°24'0 0.1
2014-Jun-24 21:28N 48°08' W 123°24'0 0.1
2014-Jun-24 20:31N 48°08' W 123°24'0 0.1
2014-Jun-24 19:31N 48°08' W 123°24'0 0.1
2014-Jun-24 18:28N 48°08' W 123°24'0 0.1
2014-Jun-24 17:25N 48°08' W 123°24'0 0.0
2014-Jun-24 16:31N 48°08' W 123°24'0 0.0
2014-Jun-24 15:28N 48°08' W 123°24'0 0.1
2014-Jun-24 14:31N 48°08' W 123°24'0 0.1
2014-Jun-24 13:25N 48°08' W 123°24'0 0.1
2014-Jun-24 12:31N 48°08' W 123°24'0 0.1
2014-Jun-24 11:31N 48°08' W 123°24'0 0.0
2014-Jun-24 10:28N 48°08' W 123°24'  

Dump ship's entire track history